^^

..:: Storico WU ::..




Lo storico viene creato da WUnderground con i dati che la stazione Meteomincio invia al loro server. L' aggiornamento viene fatto ogni 5 minuti circa, tuttavia possono esserci intervalli pi¨ ampi a causa di errori, interruzioni di servizio o problemi nell' invio tramite FTP.


Storico stazione MeteoMincio
Giorno Sommario per Gennaio 29, 2022 Unità:  Inglese    Metrico   Entrambi
Giorno Settimana Mese Anno
  Max: Min: Media:
Temperatura: 46.6 °F 26.6 °F 33.3 °F
Dew Point: 41 °F 26.1 °F 31.8 °F
Umidità: 99% 76.1% 95%
Velocità vento: 4.6mph 0mph 1.9mph
Raffica: 7mph - -
Direzione- - SSW
Pressione: 30.5 in 30.3 in -
Precipitazioni: 0.01 in    
 
 
Tabulato Dati per Gennaio 29, 2022
Ora Temperatura Dew Point Pressione Direzione Velocità vento Raffica Umidità Intensità pioggia (oraria) Info solare Situazione
00:04 30.7 °F 30.2 °F 30.4 in SSW 3.3 mph 6 mph 98% 0 in 0 W/m2
00:09 30.7 °F 30.2 °F 30.4 in SSW 2.4 mph 6 mph 98% 0 in 0 W/m2
00:14 30.6 °F 30.2 °F 30.4 in SSW 2.7 mph 5 mph 98% 0 in 0 W/m2
00:19 30.7 °F 30.2 °F 30.4 in SW 2.9 mph 5 mph 98% 0 in 0 W/m2
00:24 30.7 °F 30.2 °F 30.4 in SW 0.3 mph 5 mph 98% 0 in 0 W/m2
00:29 30.7 °F 30.2 °F 30.4 in SW 0.1 mph 2 mph 98% 0 in 0 W/m2
00:34 30.6 °F 30.2 °F 30.4 in SSE 0.5 mph 3 mph 98% 0 in 0 W/m2
00:39 30.7 °F 30.2 °F 30.4 in South 2.4 mph 4 mph 98% 0 in 0 W/m2
00:44 30.6 °F 30.2 °F 30.4 in SSW 1.4 mph 4 mph 98% 0 in 0 W/m2
00:49 30.6 °F 30 °F 30.4 in SW 1.6 mph 3.5 mph 98% 0 in 0 W/m2
00:54 30.6 °F 30 °F 30.4 in West 1.9 mph 3.5 mph 98% 0 in 0 W/m2
00:59 30.6 °F 30 °F 30.4 in West 1.6 mph 3.5 mph 98% 0 in 0 W/m2
01:04 30.6 °F 30 °F 30.4 in WNW 1.3 mph 3.5 mph 98% 0 in 0 W/m2
01:09 30.6 °F 30 °F 30.4 in West 1.1 mph 3.5 mph 98% 0 in 0 W/m2
01:14 30.6 °F 30 °F 30.4 in WSW 1.7 mph 5 mph 98% 0 in 0 W/m2
01:19 30.6 °F 30 °F 30.4 in WSW 2.1 mph 5 mph 98% 0 in 0 W/m2
01:24 30.4 °F 29.8 °F 30.4 in West 1.9 mph 3.5 mph 98% 0 in 0 W/m2
01:29 30.4 °F 29.8 °F 30.4 in WSW 1.4 mph 3.5 mph 98% 0 in 0 W/m2
01:34 30.4 °F 29.8 °F 30.4 in NNW 1.6 mph 3.5 mph 98% 0 in 0 W/m2
01:39 30.4 °F 29.8 °F 30.4 in North 2.2 mph 5 mph 98% 0 in 0 W/m2
01:44 30.4 °F 29.8 °F 30.4 in NNE 3.7 mph 5 mph 98% 0 in 0 W/m2
01:49 30.2 °F 29.7 °F 30.4 in NNE 2.7 mph 5 mph 98% 0 in 0 W/m2
01:54 30.2 °F 29.7 °F 30.4 in North 1.6 mph 5 mph 98% 0 in 0 W/m2
01:59 30.2 °F 29.7 °F 30.4 in NNE 1.7 mph 4 mph 98% 0 in 0 W/m2
02:04 30 °F 29.5 °F 30.4 in NE 2.3 mph 4 mph 98% 0 in 0 W/m2
02:09 30 °F 29.5 °F 30.4 in NE 2.8 mph 5 mph 98% 0 in 0 W/m2
02:14 29.8 °F 29.3 °F 30.4 in NE 2.7 mph 5 mph 98% 0 in 0 W/m2
02:19 29.8 °F 29.3 °F 30.4 in NE 2.5 mph 5 mph 98% 0 in 0 W/m2
02:24 29.7 °F 29.1 °F 30.4 in NE 3 mph 5 mph 98% 0 in 0 W/m2
02:29 29.5 °F 28.9 °F 30.4 in NE 2.5 mph 4 mph 98% 0 in 0 W/m2
02:34 29.3 °F 28.9 °F 30.4 in NE 3.8 mph 6 mph 98% 0 in 0 W/m2
02:39 29.1 °F 28.6 °F 30.4 in NE 4.1 mph 6 mph 98% 0 in 0 W/m2
02:44 28.9 °F 28.6 °F 30.4 in NE 2.7 mph 4 mph 98% 0 in 0 W/m2
02:49 28.9 °F 28.4 °F 30.4 in NNE 2.7 mph 4 mph 98% 0 in 0 W/m2
02:54 28.8 °F 28.4 °F 30.4 in NNE 2.6 mph 4 mph 98% 0 in 0 W/m2
02:59 28.8 °F 28.4 °F 30.4 in NE 2.2 mph 4 mph 98% 0 in 0 W/m2
03:04 28.6 °F 28.2 °F 30.4 in NE 3 mph 5 mph 98% 0 in 0 W/m2
03:09 28.6 °F 28 °F 30.4 in NE 2.7 mph 5 mph 98% 0 in 0 W/m2
03:14 28.4 °F 27.9 °F 30.4 in ENE 2.7 mph 5 mph 98% 0 in 0 W/m2
03:19 28.2 °F 27.7 °F 30.4 in East 1.6 mph 3.5 mph 98% 0 in 0 W/m2
03:24 28.2 °F 27.7 °F 30.4 in Calm     98% 0 in 0 W/m2
03:29 28.2 °F 27.7 °F 30.4 in West 0.6 mph 3.5 mph 98% 0 in 0 W/m2
03:34 28 °F 27.7 °F 30.4 in WSW 2.2 mph 4 mph 98% 0 in 0 W/m2
03:39 28 °F 27.5 °F 30.4 in WSW 1.4 mph 3.5 mph 98% 0 in 0 W/m2
03:44 27.9 °F 27.5 °F 30.4 in West 1.8 mph 3.5 mph 98% 0 in 0 W/m2
03:49 27.9 °F 27.3 °F 30.4 in West 1.4 mph 3.5 mph 98% 0 in 0 W/m2
03:54 27.7 °F 27.1 °F 30.4 in West 0.8 mph 3 mph 98% 0 in 0 W/m2
03:59 27.5 °F 27 °F 30.4 in West 0.1 mph 1.2 mph 98% 0 in 0 W/m2
04:04 27.5 °F 27 °F 30.4 in NW 0.4 mph 2 mph 98% 0 in 0 W/m2
04:09 27.3 °F 27 °F 30.4 in NNW 0.4 mph 2.3 mph 98% 0 in 0 W/m2
04:14 27.3 °F 26.8 °F 30.4 in Calm   2 mph 98% 0 in 0 W/m2
04:19 27.3 °F 26.8 °F 30.4 in SSW 0.1 mph 3 mph 98% 0 in 0 W/m2
04:24 27.3 °F 26.8 °F 30.4 in SSW 1.9 mph 3.5 mph 98% 0 in 0 W/m2
04:29 27.1 °F 26.8 °F 30.4 in SW 2.8 mph 5 mph 98% 0 in 0 W/m2
04:34 27.1 °F 26.6 °F 30.4 in SSW 2.2 mph 5 mph 98% 0 in 0 W/m2
04:39 26.8 °F 26.4 °F 30.4 in SSW 3.1 mph 5 mph 98% 0 in 0 W/m2
04:44 26.6 °F 26.2 °F 30.4 in SSW 2.6 mph 5 mph 98% 0 in 0 W/m2
04:49 26.6 °F 26.1 °F 30.4 in SW 3.2 mph 4 mph 98% 0 in 0 W/m2
04:54 26.6 °F 26.1 °F 30.4 in SW 2.1 mph 4 mph 98% 0 in 0 W/m2
04:59 26.6 °F 26.1 °F 30.4 in SW 2.7 mph 4 mph 98% 0 in 0 W/m2
05:04 26.6 °F 26.2 °F 30.4 in WSW 2.2 mph 3.5 mph 98% 0 in 0 W/m2
05:09 26.8 °F 26.2 °F 30.4 in SW 2.5 mph 4 mph 98% 0 in 0 W/m2
05:14 26.8 °F 26.2 °F 30.4 in WSW 2.9 mph 5 mph 98% 0 in 0 W/m2
05:19 26.8 °F 26.2 °F 30.4 in WSW 3.2 mph 5 mph 98% 0 in 0 W/m2
05:24 27 °F 26.4 °F 30.4 in WSW 3 mph 5 mph 98% 0 in 0 W/m2
05:29 27 °F 26.4 °F 30.4 in WSW 2.2 mph 5 mph 98% 0 in 0 W/m2
05:34 27 °F 26.4 °F 30.4 in WSW 3 mph 5 mph 98% 0 in 0 W/m2
05:39 27.1 °F 26.6 °F 30.4 in SW 3.6 mph 5 mph 98% 0 in 0 W/m2
05:44 27.1 °F 26.6 °F 30.4 in WSW 3.9 mph 5 mph 98% 0 in 0 W/m2
05:49 27.1 °F 26.6 °F 30.4 in WSW 3.9 mph 5 mph 98% 0 in 0 W/m2
05:54 27.3 °F 26.8 °F 30.4 in SW 3.7 mph 6 mph 98% 0 in 0 W/m2
05:59 27.3 °F 27 °F 30.4 in SSW 3.3 mph 6 mph 98% 0 in 0 W/m2
06:04 27.5 °F 27 °F 30.4 in SSW 2.6 mph 5 mph 98% 0 in 0 W/m2
06:09 27.5 °F 27.1 °F 30.4 in SW 3.2 mph 5 mph 98% 0 in 0 W/m2
06:14 27.7 °F 27.1 °F 30.4 in SW 2.5 mph 5 mph 98% 0 in 0 W/m2
06:19 27.7 °F 27.1 °F 30.4 in SW 2.3 mph 4 mph 98% 0 in 0 W/m2
06:24 27.7 °F 27.1 °F 30.4 in SSW 2.2 mph 4 mph 98% 0 in 0 W/m2
06:29 27.7 °F 27.1 °F 30.4 in SSW 2 mph 4 mph 98% 0 in 0 W/m2
06:34 27.9 °F 27.3 °F 30.4 in SSW 2.2 mph 4 mph 98% 0 in 0 W/m2
06:39 27.9 °F 27.3 °F 30.4 in WSW 1.2 mph 3 mph 98% 0 in 0 W/m2
06:44 27.9 °F 27.3 °F 30.4 in West 1.8 mph 3.5 mph 98% 0 in 0 W/m2
06:49 27.9 °F 27.3 °F 30.4 in West 1.2 mph 3 mph 98% 0 in 0 W/m2
06:54 27.9 °F 27.3 °F 30.4 in West 0.6 mph 2.3 mph 98% 0 in 0 W/m2
06:59 27.9 °F 27.3 °F 30.4 in SW 1.4 mph 2.3 mph 98% 0 in 0 W/m2
07:04 27.9 °F 27.3 °F 30.4 in SSW 2.2 mph 3.5 mph 98% 0 in 0 W/m2
07:09 27.9 °F 27.3 °F 30.4 in WSW 2 mph 3.5 mph 98% 0 in 0 W/m2
07:14 27.9 °F 27.3 °F 30.4 in WSW 2.2 mph 3.5 mph 98% 0 in 0 W/m2
07:19 27.9 °F 27.3 °F 30.4 in West 1.9 mph 3.5 mph 98% 0 in 0 W/m2
07:24 27.9 °F 27.3 °F 30.4 in WSW 2.2 mph 3.5 mph 98% 0 in 0 W/m2
07:29 27.9 °F 27.3 °F 30.4 in WSW 1.2 mph 3.5 mph 98% 0 in 0 W/m2
07:34 27.7 °F 27.1 °F 30.4 in WSW 0.8 mph 3 mph 98% 0 in 0 W/m2
07:39 27.7 °F 27.1 °F 30.5 in West 0.9 mph 3.5 mph 98% 0 in 0 W/m2
07:44 27.7 °F 27.1 °F 30.5 in West 0.6 mph 3 mph 98% 0 in 0 W/m2
07:49 27.7 °F 27.1 °F 30.5 in WSW 1.8 mph 3.5 mph 98% 0 in 0 W/m2
07:54 27.7 °F 27.1 °F 30.4 in SW 1.4 mph 3.5 mph 98% 0 in 5 W/m2
07:59 27.7 °F 27.1 °F 30.4 in WSW 1.3 mph 3 mph 98% 0 in 11 W/m2
08:04 27.7 °F 27.1 °F 30.5 in West 1.8 mph 3.5 mph 98% 0 in 12 W/m2
08:09 27.7 °F 27.1 °F 30.5 in West 2.4 mph 4 mph 98% 0 in 16 W/m2
08:14 27.7 °F 27.1 °F 30.5 in WNW 1.7 mph 4 mph 98% 0 in 18 W/m2
08:19 27.7 °F 27.1 °F 30.5 in WNW 1.4 mph 3.5 mph 98% 0 in 23 W/m2
08:24 27.7 °F 27.1 °F 30.5 in WNW 1.8 mph 4 mph 98% 0 in 32 W/m2
08:29 27.5 °F 27.1 °F 30.5 in WNW 2.7 mph 4 mph 98% 0 in 33 W/m2
08:34 27.3 °F 27 °F 30.5 in WNW 3 mph 4 mph 98% 0 in 39 W/m2
08:39 27.3 °F 26.8 °F 30.5 in NW 1.7 mph 3.5 mph 98% 0 in 42 W/m2
08:44 27.3 °F 26.8 °F 30.5 in WNW 1.9 mph 3.5 mph 98% 0 in 49 W/m2
08:49 27.3 °F 26.8 °F 30.5 in NNW 2.1 mph 3.5 mph 98% 0 in 51 W/m2
08:54 27.3 °F 26.8 °F 30.5 in NNW 1.9 mph 4 mph 98% 0 in 60 W/m2
08:59 27.3 °F 27 °F 30.5 in NNW 2.2 mph 4 mph 98% 0 in 67 W/m2
09:04 27.7 °F 27.1 °F 30.5 in North 1.9 mph 4 mph 98% 0 in 77 W/m2
09:09 27.7 °F 27.1 °F 30.5 in North 2.3 mph 4 mph 98% 0 in 81 W/m2
09:14 27.7 °F 27.3 °F 30.5 in North 2 mph 4 mph 98% 0 in 90 W/m2
09:19 27.7 °F 27.3 °F 30.5 in NNE 1.4 mph 3.5 mph 98% 0 in 111 W/m2
09:24 27.7 °F 27.1 °F 30.5 in NNE 0.9 mph 3 mph 98% 0 in 114 W/m2
09:29 27.9 °F 27.3 °F 30.5 in NNE 1.9 mph 3.5 mph 98% 0 in 114 W/m2
09:34 28 °F 27.5 °F 30.5 in North 0.9 mph 3 mph 98% 0 in 111 W/m2
09:39 27.9 °F 27.5 °F 30.5 in North 0.4 mph 2.3 mph 98% 0 in 100 W/m2
09:44 27.9 °F 27.3 °F 30.5 in Calm   2 mph 98% 0 in 134 W/m2
09:49 27.9 °F 27.5 °F 30.5 in Calm     98% 0 in 134 W/m2
09:54 28 °F 27.7 °F 30.5 in West 1.4 mph 3.5 mph 98% 0 in 123 W/m2
09:59 28 °F 27.5 °F 30.5 in WSW 2.4 mph 4 mph 98% 0 in 121 W/m2
10:04 27.7 °F 27.1 °F 30.5 in West 2.1 mph 4 mph 98% 0 in 134 W/m2
10:09 27.9 °F 27.3 °F 30.5 in West 1.6 mph 3.5 mph 98% 0 in 148 W/m2
10:14 28 °F 27.5 °F 30.5 in West 2.4 mph 3.5 mph 98% 0 in 151 W/m2
10:19 28.2 °F 27.7 °F 30.5 in West 2 mph 3.5 mph 98% 0 in 156 W/m2
10:24 28.4 °F 27.9 °F 30.5 in West 2.4 mph 4 mph 98% 0 in 183 W/m2
10:29 28.6 °F 28 °F 30.5 in WSW 1.9 mph 4 mph 98% 0 in 193 W/m2
10:34 28.6 °F 28.2 °F 30.5 in WSW 1.7 mph 3.5 mph 98% 0 in 195 W/m2
10:39 28.9 °F 28.4 °F 30.5 in SW 1.2 mph 3.5 mph 98% 0 in 220 W/m2
10:44 29.3 °F 28.8 °F 30.5 in SW 1.5 mph 3.5 mph 98% 0 in 264 W/m2
10:49 29.5 °F 28.9 °F 30.5 in WSW 0.8 mph 3 mph 98% 0 in 297 W/m2
10:54 30 °F 29.5 °F 30.5 in West 1.1 mph 3 mph 98.3% 0 in 325 W/m2
10:59 30.6 °F 30.2 °F 30.5 in West 1.9 mph 3.5 mph 98.7% 0.01 in 258 W/m2
11:04 30.9 °F 30.7 °F 30.5 in WSW 1.7 mph 3.5 mph 99% 0.01 in 320 W/m2
11:09 31.1 °F 30.9 °F 30.5 in WSW 2.9 mph 5 mph 99% 0.01 in 339 W/m2
11:14 31.5 °F 31.3 °F 30.5 in WSW 2.9 mph 5 mph 99% 0.01 in 339 W/m2
11:19 31.6 °F 31.3 °F 30.5 in WSW 2.1 mph 4 mph 99% 0.01 in 241 W/m2
11:24 31.8 °F 31.6 °F 30.5 in West 2.4 mph 4 mph 99% 0.01 in 213 W/m2
11:29 32 °F 31.8 °F 30.5 in West 1.7 mph 4 mph 99% 0.01 in 239 W/m2
11:34 32.2 °F 32 °F 30.5 in WSW 1.5 mph 3.5 mph 99% 0.01 in 394 W/m2
11:39 32.9 °F 32.7 °F 30.5 in WSW 0.5 mph 2.3 mph 99% 0.01 in 399 W/m2
11:44 33.6 °F 33.3 °F 30.5 in SE 1.1 mph 2.3 mph 99% 0.01 in 388 W/m2
11:49 33.8 °F 33.6 °F 30.5 in ESE 0.7 mph 2.3 mph 99% 0.01 in 390 W/m2
11:54 34.3 °F 33.8 °F 30.4 in ESE 0.9 mph 2.3 mph 97.9% 0.01 in 394 W/m2
11:59 35.1 °F 34 °F 30.4 in ESE 0.4 mph 2 mph 96.1% 0 in 387 W/m2
12:04 35.8 °F 34.5 °F 30.4 in South 0.5 mph 1.2 mph 95.3% 0 in 394 W/m2
12:09 36.3 °F 34.7 °F 30.4 in SW 0.7 mph 2.3 mph 93.8% 0 in 397 W/m2
12:14 36.7 °F 34.7 °F 30.4 in SW 1.5 mph 3.5 mph 92.3% 0 in 401 W/m2
12:19 37.4 °F 34.9 °F 30.4 in WSW 1.3 mph 3.5 mph 90.4% 0 in 403 W/m2
12:24 38.1 °F 35.8 °F 30.4 in SW 1.1 mph 4 mph 91.1% 0 in 401 W/m2
12:29 38.5 °F 35.8 °F 30.4 in SW 2.4 mph 4 mph 90.3% 0 in 404 W/m2
12:34 39 °F 36.5 °F 30.4 in SSW 2.4 mph 4 mph 90.9% 0 in 406 W/m2
12:39 39.2 °F 36.5 °F 30.4 in SW 2.2 mph 4 mph 90.2% 0 in 413 W/m2
12:44 39.6 °F 36.7 °F 30.4 in SW 2.9 mph 4 mph 89.6% 0 in 410 W/m2
12:49 39.9 °F 36.9 °F 30.4 in SSW 2.2 mph 5 mph 89.1% 0 in 411 W/m2
12:54 40.5 °F 37.4 °F 30.4 in SW 2.9 mph 5 mph 88.9% 0 in 411 W/m2
12:59 40.3 °F 36.9 °F 30.4 in SW 2.5 mph 5 mph 88% 0 in 410 W/m2
13:04 40.5 °F 37.4 °F 30.4 in SW 2.5 mph 5 mph 88.7% 0 in 411 W/m2
13:09 40.8 °F 37.4 °F 30.4 in West 2.7 mph 5 mph 88% 0 in 413 W/m2
13:14 41 °F 37.6 °F 30.4 in WSW 2.4 mph 5 mph 87.8% 0 in 410 W/m2
13:19 40.8 °F 37.4 °F 30.4 in South 1.1 mph 4 mph 88% 0 in 406 W/m2
13:24 41.2 °F 37.9 °F 30.4 in SW 1.1 mph 3.5 mph 88% 0 in 403 W/m2
13:29 41.9 °F 38.5 °F 30.4 in SSW 1.6 mph 5 mph 87.8% 0 in 392 W/m2
13:34 42.1 °F 38.5 °F 30.4 in SW 1.2 mph 5 mph 87.5% 0 in 396 W/m2
13:39 42.6 °F 39 °F 30.4 in WSW 2 mph 4 mph 87.4% 0 in 397 W/m2
13:44 42.8 °F 39.2 °F 30.4 in SW 1.3 mph 4 mph 87.2% 0 in 394 W/m2
13:49 43.3 °F 39.6 °F 30.4 in WSW 1.4 mph 3.5 mph 86.4% 0 in 392 W/m2
13:54 43.9 °F 39.7 °F 30.4 in West 1.6 mph 3.5 mph 85.3% 0 in 387 W/m2
13:59 44.1 °F 39.6 °F 30.4 in WSW 1.4 mph 3 mph 83.7% 0 in 383 W/m2
14:04 44.4 °F 39.6 °F 30.4 in West 1.7 mph 3.5 mph 83% 0 in 374 W/m2
14:09 44.6 °F 39.7 °F 30.4 in WNW 0.9 mph 3.5 mph 82.8% 0 in 374 W/m2
14:14 45.3 °F 39.9 °F 30.4 in NW 1.1 mph 3 mph 81.1% 0 in 373 W/m2
14:19 45.3 °F 39.4 °F 30.4 in NW 0.7 mph 2.3 mph 79.6% 0 in 360 W/m2
14:24 45.3 °F 39.4 °F 30.4 in WSW 1.5 mph 3.5 mph 79.2% 0 in 348 W/m2
14:29 45.3 °F 38.7 °F 30.4 in West 1.1 mph 3.5 mph 77.6% 0 in 341 W/m2
14:34 45.7 °F 39.4 °F 30.4 in West 0.3 mph 3 mph 78.6% 0 in 338 W/m2
14:39 46 °F 39.7 °F 30.4 in West 0.5 mph 2.3 mph 78.8% 0 in 327 W/m2
14:44 46.2 °F 39.7 °F 30.4 in West 1.7 mph 3.5 mph 77.9% 0 in 320 W/m2
14:49 46.4 °F 39.4 °F 30.4 in WNW 1.6 mph 3.5 mph 76.7% 0 in 308 W/m2
14:54 46.6 °F 39.4 °F 30.4 in WNW 1.1 mph 3.5 mph 76.1% 0 in 301 W/m2
14:59 46.4 °F 39.6 °F 30.4 in WSW 1.5 mph 3.5 mph 76.5% 0 in 287 W/m2
15:04 46.4 °F 39.9 °F 30.4 in West 2.1 mph 5 mph 78.1% 0 in 276 W/m2
15:09 46.2 °F 41 °F 30.4 in SSW 3.4 mph 5 mph 82% 0 in 267 W/m2
15:14 45.5 °F 41 °F 30.4 in SSW 4.3 mph 7 mph 84.6% 0 in 260 W/m2
15:19 45 °F 41 °F 30.4 in SSW 3.9 mph 7 mph 85.6% 0 in 243 W/m2
15:24 44.6 °F 40.8 °F 30.4 in SSW 3.9 mph 7 mph 86% 0 in 232 W/m2
15:29 44.1 °F 40.5 °F 30.4 in SSW 3.4 mph 7 mph 86.8% 0 in 227 W/m2
15:34 44.1 °F 40.5 °F 30.4 in SSW 2.7 mph 5 mph 87.1% 0 in 211 W/m2
15:39 43.9 °F 40.5 °F 30.4 in South 2.6 mph 5 mph 87.2% 0 in 200 W/m2
15:44 43.9 °F 40.3 °F 30.3 in South 2 mph 4 mph 87% 0 in 193 W/m2
15:49 43.9 °F 40.3 °F 30.3 in SE 2.1 mph 4 mph 87% 0 in 178 W/m2
15:54 43.7 °F 40.1 °F 30.3 in SE 2.3 mph 4 mph 87% 0 in 171 W/m2
15:59 43.9 °F 40.3 °F 30.3 in South 2.4 mph 6 mph 87% 0 in 153 W/m2
16:04 43.7 °F 40.1 °F 30.3 in South 3.9 mph 7 mph 87% 0 in 134 W/m2
16:09 43 °F 39.7 °F 30.3 in South 4.6 mph 7 mph 87.8% 0 in 123 W/m2
16:14 42.8 °F 39.6 °F 30.3 in South 3.2 mph 7 mph 88.4% 0 in 113 W/m2
16:19 42.8 °F 39.6 °F 30.3 in SSW 1.3 mph 6 mph 88.1% 0 in 102 W/m2
16:24 42.8 °F 39.6 °F 30.3 in SSW 2.7 mph 5 mph 88% 0 in 72 W/m2
16:29 42.6 °F 39.4 °F 30.3 in SSW 2.8 mph 5 mph 88% 0 in 39 W/m2
16:34 42.6 °F 39.2 °F 30.3 in SSW 1.6 mph 4 mph 88% 0 in 39 W/m2
16:39 42.6 °F 39.4 °F 30.3 in SW 1.7 mph 3.5 mph 88% 0 in 35 W/m2
16:44 42.6 °F 39.4 °F 30.3 in SW 1 mph 3.5 mph 88% 0 in 32 W/m2
16:49 42.4 °F 39.2 °F 30.3 in SSW 0.8 mph 2.3 mph 88% 0 in 26 W/m2
16:54 42.4 °F 39.2 °F 30.3 in SW 0.5 mph 2.3 mph 88% 0 in 25 W/m2
16:59 42.3 °F 39.2 °F 30.3 in Calm   2 mph 88.9% 0 in 21 W/m2
17:04 41.9 °F 38.8 °F 30.3 in Calm     89% 0 in 18 W/m2
17:09 41.4 °F 38.5 °F 30.3 in SSW 2.5 mph 6 mph 89.5% 0 in 12 W/m2
17:14 40.3 °F 37.9 °F 30.3 in SSW 3.7 mph 6 mph 91% 0 in 11 W/m2
17:19 39 °F 37 °F 30.3 in SSW 3.1 mph 6 mph 92.5% 0 in 7 W/m2
17:24 37.6 °F 36 °F 30.3 in SSW 3 mph 6 mph 93.6% 0 in 0 W/m2
17:29 37 °F 35.6 °F 30.3 in SW 2.2 mph 6 mph 94.8% 0 in 0 W/m2
17:34 36.9 °F 35.8 °F 30.3 in WSW 2.5 mph 4 mph 95.8% 0 in 0 W/m2
17:39 36.5 °F 35.6 °F 30.3 in WSW 2.6 mph 4 mph 96% 0 in 0 W/m2
17:44 36.3 °F 35.4 °F 30.3 in SW 2.6 mph 4.6 mph 96% 0 in 0 W/m2
17:49 36.3 °F 35.4 °F 30.3 in SW 2.6 mph 5 mph 96.9% 0 in 0 W/m2
17:54 36.1 °F 35.2 °F 30.3 in WSW 2.8 mph 4 mph 97% 0 in 0 W/m2
17:59 36 °F 35.1 °F 30.3 in WSW 2.9 mph 4 mph 97% 0 in 0 W/m2
18:04 35.8 °F 35.1 °F 30.3 in WSW 3.2 mph 4 mph 97% 0 in 0 W/m2
18:09 35.6 °F 34.9 °F 30.3 in WSW 2.3 mph 4 mph 97% 0 in 0 W/m2
18:14 35.4 °F 34.7 °F 30.3 in WSW 1.6 mph 3.5 mph 97% 0 in 0 W/m2
18:19 35.2 °F 34.5 °F 30.3 in WSW 2.6 mph 5 mph 97% 0 in 0 W/m2
18:24 35.1 °F 34.3 °F 30.3 in WSW 2.5 mph 5 mph 97% 0 in 0 W/m2
18:29 34.7 °F 34 °F 30.3 in West 2.7 mph 5 mph 97% 0 in 0 W/m2
18:34 34.3 °F 33.6 °F 30.3 in West 2.3 mph 5 mph 97% 0 in 0 W/m2
18:39 34.3 °F 33.4 °F 30.3 in West 1.4 mph 4 mph 97% 0 in 0 W/m2
18:44 34.2 °F 33.6 °F 30.3 in WSW 1.9 mph 4 mph 97.5% 0 in 0 W/m2
18:49 34.3 °F 33.8 °F 30.3 in West 1.4 mph 4 mph 98% 0 in 0 W/m2
18:54 34.2 °F 33.8 °F 30.3 in SSW 1.4 mph 4 mph 98% 0 in 0 W/m2
18:59 34.3 °F 33.8 °F 30.3 in WSW 1 mph 3.5 mph 98% 0 in 0 W/m2
19:04 34.3 °F 33.8 °F 30.3 in West 1.4 mph 3.5 mph 98% 0 in 0 W/m2
19:09 34.3 °F 33.8 °F 30.3 in West 0.6 mph 2.3 mph 98% 0 in 0 W/m2
19:14 34.5 °F 34 °F 30.3 in West 0.5 mph 2.3 mph 98% 0 in 0 W/m2
19:19 34.5 °F 34 °F 30.3 in Calm   2 mph 98% 0 in 0 W/m2
19:24 34.3 °F 34 °F 30.3 in Calm     98% 0 in 0 W/m2
19:29 34 °F 33.4 °F 30.3 in Calm     98% 0 in 0 W/m2
19:34 34 °F 33.6 °F 30.3 in West 0.1 mph 2 mph 98% 0 in 0 W/m2
19:39 34.2 °F 33.6 °F 30.3 in NNW 1.9 mph 5 mph 98% 0 in 0 W/m2
19:44 33.4 °F 33.1 °F 30.3 in East 0.9 mph 5 mph 98% 0 in 0 W/m2
19:49 33.1 °F 32.5 °F 30.3 in East 0.7 mph 2.3 mph 98% 0 in 0 W/m2
19:54 32.9 °F 32.4 °F 30.3 in East 0.4 mph 2.3 mph 98% 0 in 0 W/m2
19:59 32.5 °F 32 °F 30.3 in East 0.5 mph 2.3 mph 98% 0 in 0 W/m2
20:04 32.4 °F 32 °F 30.3 in East 1.7 mph 2.3 mph 98% 0 in 0 W/m2
20:09 32.4 °F 31.8 °F 30.3 in ENE 1.4 mph 2.3 mph 98% 0 in 0 W/m2
20:14 32.5 °F 32 °F 30.3 in NE 1 mph 2.3 mph 98% 0 in 0 W/m2
20:19 32.9 °F 32.5 °F 30.3 in North 0.7 mph 2.3 mph 98% 0 in 0 W/m2
20:24 33.1 °F 32.5 °F 30.3 in North 1.1 mph 2.3 mph 98% 0 in 0 W/m2
20:29 33.3 °F 32.7 °F 30.3 in North 1.2 mph 2.3 mph 98% 0 in 0 W/m2
20:34 33.4 °F 32.9 °F 30.3 in NE 0.6 mph 2.3 mph 98% 0 in 0 W/m2
20:39 32.9 °F 32.5 °F 30.3 in ESE 0.7 mph 2.3 mph 98% 0 in 0 W/m2
20:44 32.7 °F 32.2 °F 30.3 in Calm   2 mph 98% 0 in 0 W/m2
20:49 32.5 °F 32 °F 30.3 in Calm     98% 0 in 0 W/m2
20:54 32.5 °F 32.2 °F 30.3 in SSE 1.2 mph 2.3 mph 98% 0 in 0 W/m2
20:59 32.5 °F 32 °F 30.3 in West 2.1 mph 3.5 mph 98% 0 in 0 W/m2
21:04 32.2 °F 31.6 °F 30.3 in WSW 2.7 mph 3.5 mph 98% 0 in 0 W/m2
21:09 32 °F 31.6 °F 30.3 in WSW 2.5 mph 3.5 mph 98% 0 in 0 W/m2
21:14 32.4 °F 31.8 °F 30.3 in WSW 1.6 mph 3.5 mph 98% 0 in 0 W/m2
21:19 32.2 °F 31.6 °F 30.3 in WSW 1.7 mph 2.3 mph 98% 0 in 0 W/m2
21:24 32.2 °F 31.8 °F 30.3 in WSW 1.2 mph 3 mph 98% 0 in 0 W/m2
21:29 32.5 °F 32 °F 30.3 in WSW 2.1 mph 3.5 mph 98% 0 in 0 W/m2
21:34 32.7 °F 32.2 °F 30.3 in West 1.6 mph 3.5 mph 98% 0 in 0 W/m2
21:39 32.7 °F 32.2 °F 30.3 in West 2 mph 3.5 mph 98% 0 in 0 W/m2
21:44 32.4 °F 31.8 °F 30.3 in West 2.5 mph 4 mph 97.3% 0 in 0 W/m2
21:49 32.5 °F 31.8 °F 30.3 in West 2.2 mph 4 mph 97% 0 in 0 W/m2
21:54 32.7 °F 32 °F 30.3 in West 1.7 mph 3.5 mph 97.4% 0 in 0 W/m2
21:59 32.9 °F 32.4 °F 30.3 in West 1.5 mph 3.5 mph 97.8% 0 in 0 W/m2
22:04 33.1 °F 32.4 °F 30.3 in West 0.9 mph 3 mph 97% 0 in 0 W/m2
22:09 32.9 °F 32.2 °F 30.3 in SSW 1.4 mph 3.5 mph 97% 0 in 0 W/m2
22:14 32.7 °F 32 °F 30.3 in SSW 1.9 mph 4 mph 97% 0 in 0 W/m2
22:19 32.7 °F 31.8 °F 30.3 in South 2.1 mph 3.5 mph 97% 0 in 0 W/m2
22:24 32.7 °F 32 °F 30.3 in SSW 0.9 mph 3 mph 97% 0 in 0 W/m2
22:29 32.7 °F 32 °F 30.3 in SSW 0.4 mph 2.3 mph 97% 0 in 0 W/m2
22:34 32.9 °F 32.2 °F 30.3 in Calm   2 mph 97% 0 in 0 W/m2
22:39 33.3 °F 32.4 °F 30.3 in WSW 1.3 mph 3.5 mph 97% 0 in 0 W/m2
22:44 32.9 °F 32.2 °F 30.3 in WSW 2.5 mph 4 mph 97% 0 in 0 W/m2
22:49 32.7 °F 31.8 °F 30.3 in West 2.4 mph 4 mph 96.4% 0 in 0 W/m2
22:54 32.9 °F 32 °F 30.3 in West 1.6 mph 3.5 mph 96.8% 0 in 0 W/m2
22:59 33.1 °F 32.4 °F 30.3 in West 1.6 mph 3.5 mph 97% 0 in 0 W/m2
23:04 33.3 °F 32.4 °F 30.3 in West 2.7 mph 4 mph 96.8% 0 in 0 W/m2
23:09 32.9 °F 32 °F 30.3 in West 3.2 mph 5 mph 96% 0 in 0 W/m2
23:14 33.1 °F 32 °F 30.3 in WSW 2.4 mph 5 mph 96% 0 in 0 W/m2
23:19 33.3 °F 32.4 °F 30.3 in SW 2.3 mph 4 mph 96.5% 0 in 0 W/m2
23:24 33.3 °F 32.4 °F 30.3 in South 2.6 mph 5 mph 96.2% 0 in 0 W/m2
23:29 33.4 °F 32.5 °F 30.3 in South 1.8 mph 5 mph 96% 0 in 0 W/m2
23:34 33.8 °F 32.9 °F 30.3 in SSW 2.5 mph 5 mph 96.3% 0 in 0 W/m2
23:39 34.2 °F 33.3 °F 30.3 in SSW 2.9 mph 5 mph 96% 0 in 0 W/m2
23:44 34.3 °F 33.4 °F 30.3 in SW 3.5 mph 6 mph 96% 0 in 0 W/m2
23:49 34.7 °F 33.6 °F 30.3 in SW 2.9 mph 6 mph 96% 0 in 0 W/m2
23:54 34.9 °F 33.6 °F 30.3 in SW 2.9 mph 5 mph 95% 0 in 0 W/m2
23:59 34.9 °F 33.6 °F 30.3 in WSW 2 mph 5 mph 95% 0 in 0 W/m2
Stazione Meteorologica MeteoMincio Rivalta s/M (MN)
Con i complimenti di Weather Underground - 4 mb


GLOSSARIO METEOROLOGICO
Nebbia
Sospensione nell'atmosfera di piccolissime gocce d'acqua, che riduce generalmente la visibilità orizzontale sulla superficie terrestre a meno di un chilometro.

Do NOT follow this link or you will be banned from the site!